sensor_id;sensor_type;location;lat;lon;timestamp;P1;durP1;ratioP1;P2;durP2;ratioP2
57241;SDS011;43095;53.302;5.786;2022-09-09T00:00:31;12.60;;;9.15;;
57241;SDS011;43095;53.302;5.786;2022-09-09T00:03:31;15.15;;;9.23;;
57241;SDS011;43095;53.302;5.786;2022-09-09T00:06:31;11.32;;;8.32;;
57241;SDS011;43095;53.302;5.786;2022-09-09T00:09:21;15.02;;;9.88;;
57241;SDS011;43095;53.302;5.786;2022-09-09T00:12:16;12.00;;;8.73;;
57241;SDS011;43095;53.302;5.786;2022-09-09T00:15:14;12.32;;;9.43;;
57241;SDS011;43095;53.302;5.786;2022-09-09T00:18:13;12.57;;;10.50;;
57241;SDS011;43095;53.302;5.786;2022-09-09T00:21:14;13.73;;;10.20;;
57241;SDS011;43095;53.302;5.786;2022-09-09T00:24:10;23.73;;;12.40;;
57241;SDS011;43095;53.302;5.786;2022-09-09T00:27:27;16.83;;;11.57;;
57241;SDS011;43095;53.302;5.786;2022-09-09T00:30:33;15.20;;;11.52;;
57241;SDS011;43095;53.302;5.786;2022-09-09T00:33:20;13.88;;;11.05;;
57241;SDS011;43095;53.302;5.786;2022-09-09T00:36:12;18.63;;;11.85;;
57241;SDS011;43095;53.302;5.786;2022-09-09T00:39:01;18.42;;;11.65;;
57241;SDS011;43095;53.302;5.786;2022-09-09T00:44:34;14.43;;;10.95;;
57241;SDS011;43095;53.302;5.786;2022-09-09T00:59:50;20.33;;;11.77;;
57241;SDS011;43095;53.302;5.786;2022-09-09T01:18:07;18.77;;;13.60;;
57241;SDS011;43095;53.302;5.786;2022-09-09T01:24:05;16.48;;;11.80;;
57241;SDS011;43095;53.302;5.786;2022-09-09T01:27:20;16.27;;;11.15;;
57241;SDS011;43095;53.302;5.786;2022-09-09T01:30:11;20.58;;;13.60;;
57241;SDS011;43095;53.302;5.786;2022-09-09T01:32:59;16.90;;;11.75;;
57241;SDS011;43095;53.302;5.786;2022-09-09T01:38:37;13.15;;;11.07;;
57241;SDS011;43095;53.302;5.786;2022-09-09T01:41:23;17.90;;;12.15;;
57241;SDS011;43095;53.302;5.786;2022-09-09T01:44:24;17.92;;;12.57;;
57241;SDS011;43095;53.302;5.786;2022-09-09T01:47:11;14.88;;;10.13;;
57241;SDS011;43095;53.302;5.786;2022-09-09T01:50:23;15.02;;;12.15;;
57241;SDS011;43095;53.302;5.786;2022-09-09T01:53:09;17.98;;;12.30;;
57241;SDS011;43095;53.302;5.786;2022-09-09T01:56:01;16.08;;;11.88;;
57241;SDS011;43095;53.302;5.786;2022-09-09T02:08:28;15.85;;;12.95;;
57241;SDS011;43095;53.302;5.786;2022-09-09T02:11:27;19.10;;;13.50;;
57241;SDS011;43095;53.302;5.786;2022-09-09T02:14:30;16.02;;;12.43;;
57241;SDS011;43095;53.302;5.786;2022-09-09T02:17:28;12.75;;;11.15;;
57241;SDS011;43095;53.302;5.786;2022-09-09T02:20:25;21.00;;;13.73;;
57241;SDS011;43095;53.302;5.786;2022-09-09T02:23:17;24.98;;;17.10;;
57241;SDS011;43095;53.302;5.786;2022-09-09T02:26:11;23.55;;;14.43;;
57241;SDS011;43095;53.302;5.786;2022-09-09T02:29:01;15.75;;;11.52;;
57241;SDS011;43095;53.302;5.786;2022-09-09T02:31:50;15.80;;;12.48;;
57241;SDS011;43095;53.302;5.786;2022-09-09T02:34:43;21.75;;;15.25;;
57241;SDS011;43095;53.302;5.786;2022-09-09T02:37:35;18.95;;;13.38;;
57241;SDS011;43095;53.302;5.786;2022-09-09T02:40:22;15.40;;;12.27;;
57241;SDS011;43095;53.302;5.786;2022-09-09T02:43:15;17.30;;;12.27;;
57241;SDS011;43095;53.302;5.786;2022-09-09T02:46:14;16.25;;;12.20;;
57241;SDS011;43095;53.302;5.786;2022-09-09T02:49:06;20.95;;;12.32;;
57241;SDS011;43095;53.302;5.786;2022-09-09T02:52:01;19.63;;;13.95;;
57241;SDS011;43095;53.302;5.786;2022-09-09T02:54:54;19.77;;;13.75;;
57241;SDS011;43095;53.302;5.786;2022-09-09T02:57:45;16.73;;;14.02;;
57241;SDS011;43095;53.302;5.786;2022-09-09T03:00:35;18.55;;;12.88;;
57241;SDS011;43095;53.302;5.786;2022-09-09T03:03:21;16.55;;;11.35;;
57241;SDS011;43095;53.302;5.786;2022-09-09T03:06:08;16.75;;;13.27;;
57241;SDS011;43095;53.302;5.786;2022-09-09T03:08:55;19.75;;;13.65;;
57241;SDS011;43095;53.302;5.786;2022-09-09T03:11:43;19.17;;;14.10;;
57241;SDS011;43095;53.302;5.786;2022-09-09T03:14:31;19.38;;;12.30;;
57241;SDS011;43095;53.302;5.786;2022-09-09T03:17:17;17.60;;;12.48;;
57241;SDS011;43095;53.302;5.786;2022-09-09T03:20:08;18.70;;;13.25;;
57241;SDS011;43095;53.302;5.786;2022-09-09T03:22:55;22.25;;;15.15;;
57241;SDS011;43095;53.302;5.786;2022-09-09T03:25:48;17.70;;;13.80;;
57241;SDS011;43095;53.302;5.786;2022-09-09T03:28:42;16.25;;;12.48;;
57241;SDS011;43095;53.302;5.786;2022-09-09T03:31:28;18.48;;;14.45;;
57241;SDS011;43095;53.302;5.786;2022-09-09T03:34:16;20.08;;;13.48;;
57241;SDS011;43095;53.302;5.786;2022-09-09T03:37:02;20.25;;;14.43;;
57241;SDS011;43095;53.302;5.786;2022-09-09T03:39:47;13.70;;;11.68;;
57241;SDS011;43095;53.302;5.786;2022-09-09T03:42:34;21.65;;;14.70;;
57241;SDS011;43095;53.302;5.786;2022-09-09T03:45:22;23.20;;;15.32;;
57241;SDS011;43095;53.302;5.786;2022-09-09T03:48:07;19.75;;;12.82;;
57241;SDS011;43095;53.302;5.786;2022-09-09T03:50:56;16.30;;;13.50;;
57241;SDS011;43095;53.302;5.786;2022-09-09T03:53:43;17.45;;;13.27;;
57241;SDS011;43095;53.302;5.786;2022-09-09T03:56:30;17.35;;;12.95;;
57241;SDS011;43095;53.302;5.786;2022-09-09T03:59:17;22.67;;;14.27;;
57241;SDS011;43095;53.302;5.786;2022-09-09T04:02:03;21.30;;;14.45;;
57241;SDS011;43095;53.302;5.786;2022-09-09T04:04:49;22.52;;;14.48;;
57241;SDS011;43095;53.302;5.786;2022-09-09T04:07:35;28.17;;;17.13;;
57241;SDS011;43095;53.302;5.786;2022-09-09T04:10:21;18.55;;;13.98;;
57241;SDS011;43095;53.302;5.786;2022-09-09T04:13:06;21.80;;;13.30;;
57241;SDS011;43095;53.302;5.786;2022-09-09T04:15:57;19.73;;;13.50;;
57241;SDS011;43095;53.302;5.786;2022-09-09T04:18:44;20.08;;;13.90;;
57241;SDS011;43095;53.302;5.786;2022-09-09T04:21:32;26.08;;;15.55;;
57241;SDS011;43095;53.302;5.786;2022-09-09T04:24:20;17.77;;;13.13;;
57241;SDS011;43095;53.302;5.786;2022-09-09T04:27:07;20.52;;;13.88;;
57241;SDS011;43095;53.302;5.786;2022-09-09T04:29:54;19.58;;;13.63;;
57241;SDS011;43095;53.302;5.786;2022-09-09T04:32:43;15.90;;;12.40;;
57241;SDS011;43095;53.302;5.786;2022-09-09T04:35:29;18.17;;;11.90;;
57241;SDS011;43095;53.302;5.786;2022-09-09T04:38:15;20.73;;;12.40;;
57241;SDS011;43095;53.302;5.786;2022-09-09T04:41:02;17.27;;;13.07;;
57241;SDS011;43095;53.302;5.786;2022-09-09T04:43:49;17.95;;;12.02;;
57241;SDS011;43095;53.302;5.786;2022-09-09T04:46:35;20.98;;;13.13;;
57241;SDS011;43095;53.302;5.786;2022-09-09T04:49:21;15.48;;;11.52;;
57241;SDS011;43095;53.302;5.786;2022-09-09T04:52:08;17.95;;;12.52;;
57241;SDS011;43095;53.302;5.786;2022-09-09T04:54:54;14.25;;;10.48;;
57241;SDS011;43095;53.302;5.786;2022-09-09T04:57:40;20.15;;;12.10;;
57241;SDS011;43095;53.302;5.786;2022-09-09T05:00:28;14.45;;;10.55;;
57241;SDS011;43095;53.302;5.786;2022-09-09T05:03:14;14.32;;;11.18;;
57241;SDS011;43095;53.302;5.786;2022-09-09T05:06:07;17.77;;;11.25;;
57241;SDS011;43095;53.302;5.786;2022-09-09T05:08:54;16.70;;;10.98;;
57241;SDS011;43095;53.302;5.786;2022-09-09T05:11:43;16.48;;;10.55;;
57241;SDS011;43095;53.302;5.786;2022-09-09T05:14:46;18.08;;;10.70;;
57241;SDS011;43095;53.302;5.786;2022-09-09T05:17:31;21.27;;;11.50;;
57241;SDS011;43095;53.302;5.786;2022-09-09T05:20:19;15.55;;;11.48;;
57241;SDS011;43095;53.302;5.786;2022-09-09T05:23:04;13.93;;;10.25;;
57241;SDS011;43095;53.302;5.786;2022-09-09T05:25:57;17.05;;;11.75;;
57241;SDS011;43095;53.302;5.786;2022-09-09T05:28:43;17.80;;;10.85;;
57241;SDS011;43095;53.302;5.786;2022-09-09T05:31:30;19.55;;;11.18;;
57241;SDS011;43095;53.302;5.786;2022-09-09T05:34:19;18.65;;;11.48;;
57241;SDS011;43095;53.302;5.786;2022-09-09T05:37:06;18.73;;;12.15;;
57241;SDS011;43095;53.302;5.786;2022-09-09T05:39:54;22.85;;;13.10;;
57241;SDS011;43095;53.302;5.786;2022-09-09T05:42:40;16.00;;;11.38;;
57241;SDS011;43095;53.302;5.786;2022-09-09T05:45:27;17.75;;;11.50;;
57241;SDS011;43095;53.302;5.786;2022-09-09T05:48:13;14.40;;;10.23;;
57241;SDS011;43095;53.302;5.786;2022-09-09T05:51:03;20.05;;;11.23;;
57241;SDS011;43095;53.302;5.786;2022-09-09T05:53:50;17.55;;;10.27;;
57241;SDS011;43095;53.302;5.786;2022-09-09T05:56:37;21.27;;;11.23;;
57241;SDS011;43095;53.302;5.786;2022-09-09T05:59:24;21.67;;;10.90;;
57241;SDS011;43095;53.302;5.786;2022-09-09T06:02:13;16.88;;;10.90;;
57241;SDS011;43095;53.302;5.786;2022-09-09T06:04:59;20.45;;;11.20;;
57241;SDS011;43095;53.302;5.786;2022-09-09T06:07:45;22.90;;;12.07;;
57241;SDS011;43095;53.302;5.786;2022-09-09T06:10:32;18.48;;;12.30;;
57241;SDS011;43095;53.302;5.786;2022-09-09T06:13:19;19.40;;;12.85;;
57241;SDS011;43095;53.302;5.786;2022-09-09T06:16:14;20.67;;;13.23;;
57241;SDS011;43095;53.302;5.786;2022-09-09T06:19:01;20.23;;;12.90;;
57241;SDS011;43095;53.302;5.786;2022-09-09T06:21:51;22.48;;;13.07;;
57241;SDS011;43095;53.302;5.786;2022-09-09T06:24:37;21.02;;;13.90;;
57241;SDS011;43095;53.302;5.786;2022-09-09T06:27:24;20.95;;;15.35;;
57241;SDS011;43095;53.302;5.786;2022-09-09T06:30:09;20.80;;;14.57;;
57241;SDS011;43095;53.302;5.786;2022-09-09T06:32:56;25.88;;;15.45;;
57241;SDS011;43095;53.302;5.786;2022-09-09T06:35:42;24.33;;;15.00;;
57241;SDS011;43095;53.302;5.786;2022-09-09T06:38:39;25.98;;;16.15;;
57241;SDS011;43095;53.302;5.786;2022-09-09T06:41:25;28.90;;;17.75;;
57241;SDS011;43095;53.302;5.786;2022-09-09T06:44:13;20.95;;;15.15;;
57241;SDS011;43095;53.302;5.786;2022-09-09T06:47:00;23.80;;;17.30;;
57241;SDS011;43095;53.302;5.786;2022-09-09T06:49:46;29.40;;;17.48;;
57241;SDS011;43095;53.302;5.786;2022-09-09T06:52:33;19.77;;;15.20;;
57241;SDS011;43095;53.302;5.786;2022-09-09T06:55:19;24.58;;;16.70;;
57241;SDS011;43095;53.302;5.786;2022-09-09T06:58:09;21.48;;;15.40;;
57241;SDS011;43095;53.302;5.786;2022-09-09T07:01:02;23.27;;;16.67;;
57241;SDS011;43095;53.302;5.786;2022-09-09T07:03:53;19.85;;;15.13;;
57241;SDS011;43095;53.302;5.786;2022-09-09T07:06:42;22.45;;;16.50;;
57241;SDS011;43095;53.302;5.786;2022-09-09T07:09:38;23.33;;;15.82;;
57241;SDS011;43095;53.302;5.786;2022-09-09T07:12:23;25.38;;;15.82;;
57241;SDS011;43095;53.302;5.786;2022-09-09T07:15:14;20.42;;;15.10;;
57241;SDS011;43095;53.302;5.786;2022-09-09T07:18:02;21.52;;;15.77;;
57241;SDS011;43095;53.302;5.786;2022-09-09T07:20:52;23.02;;;14.85;;
57241;SDS011;43095;53.302;5.786;2022-09-09T07:23:41;18.48;;;14.50;;
57241;SDS011;43095;53.302;5.786;2022-09-09T07:26:28;18.65;;;13.60;;
57241;SDS011;43095;53.302;5.786;2022-09-09T07:29:18;15.38;;;11.93;;
57241;SDS011;43095;53.302;5.786;2022-09-09T07:32:06;19.45;;;11.65;;
57241;SDS011;43095;53.302;5.786;2022-09-09T07:34:54;16.58;;;11.82;;
57241;SDS011;43095;53.302;5.786;2022-09-09T07:37:41;15.60;;;10.80;;
57241;SDS011;43095;53.302;5.786;2022-09-09T07:40:29;12.88;;;10.52;;
57241;SDS011;43095;53.302;5.786;2022-09-09T07:43:16;14.68;;;10.57;;
57241;SDS011;43095;53.302;5.786;2022-09-09T07:46:04;13.40;;;9.73;;
57241;SDS011;43095;53.302;5.786;2022-09-09T07:48:52;13.95;;;9.88;;
57241;SDS011;43095;53.302;5.786;2022-09-09T07:54:32;15.10;;;8.98;;
57241;SDS011;43095;53.302;5.786;2022-09-09T07:57:20;12.07;;;8.95;;
57241;SDS011;43095;53.302;5.786;2022-09-09T08:00:07;13.60;;;9.25;;
57241;SDS011;43095;53.302;5.786;2022-09-09T08:03:01;12.15;;;8.75;;
57241;SDS011;43095;53.302;5.786;2022-09-09T08:05:47;15.77;;;10.60;;
57241;SDS011;43095;53.302;5.786;2022-09-09T08:08:33;17.70;;;10.40;;
57241;SDS011;43095;53.302;5.786;2022-09-09T08:11:25;11.43;;;8.85;;
57241;SDS011;43095;53.302;5.786;2022-09-09T08:14:13;12.45;;;8.73;;
57241;SDS011;43095;53.302;5.786;2022-09-09T08:16:59;13.68;;;9.60;;
57241;SDS011;43095;53.302;5.786;2022-09-09T08:19:46;12.32;;;8.32;;
57241;SDS011;43095;53.302;5.786;2022-09-09T08:22:36;12.05;;;8.45;;
57241;SDS011;43095;53.302;5.786;2022-09-09T08:25:23;12.57;;;8.38;;
57241;SDS011;43095;53.302;5.786;2022-09-09T08:28:09;11.90;;;8.13;;
57241;SDS011;43095;53.302;5.786;2022-09-09T08:31:04;11.48;;;7.57;;
57241;SDS011;43095;53.302;5.786;2022-09-09T08:34:00;10.98;;;7.07;;
57241;SDS011;43095;53.302;5.786;2022-09-09T08:36:51;13.52;;;8.93;;
57241;SDS011;43095;53.302;5.786;2022-09-09T08:39:41;9.35;;;7.30;;
57241;SDS011;43095;53.302;5.786;2022-09-09T08:42:32;14.30;;;7.97;;
57241;SDS011;43095;53.302;5.786;2022-09-09T08:52:13;9.63;;;7.15;;
57241;SDS011;43095;53.302;5.786;2022-09-09T08:58:21;10.10;;;7.60;;
57241;SDS011;43095;53.302;5.786;2022-09-09T09:07:09;9.55;;;7.28;;
57241;SDS011;43095;53.302;5.786;2022-09-09T09:13:19;8.68;;;7.50;;
57241;SDS011;43095;53.302;5.786;2022-09-09T09:19:13;10.38;;;6.32;;
57241;SDS011;43095;53.302;5.786;2022-09-09T09:25:20;7.15;;;5.32;;
57241;SDS011;43095;53.302;5.786;2022-09-09T09:28:19;9.80;;;4.90;;
57241;SDS011;43095;53.302;5.786;2022-09-09T09:31:14;13.73;;;4.97;;
57241;SDS011;43095;53.302;5.786;2022-09-09T09:34:04;10.18;;;5.88;;
57241;SDS011;43095;53.302;5.786;2022-09-09T09:36:53;11.38;;;4.72;;
57241;SDS011;43095;53.302;5.786;2022-09-09T09:39:41;10.70;;;4.68;;
57241;SDS011;43095;53.302;5.786;2022-09-09T09:42:48;12.48;;;4.75;;
57241;SDS011;43095;53.302;5.786;2022-09-09T09:45:43;8.35;;;5.50;;
57241;SDS011;43095;53.302;5.786;2022-09-09T09:48:56;11.63;;;6.25;;
57241;SDS011;43095;53.302;5.786;2022-09-09T09:51:43;12.52;;;5.88;;
57241;SDS011;43095;53.302;5.786;2022-09-09T09:54:30;12.88;;;5.65;;
57241;SDS011;43095;53.302;5.786;2022-09-09T09:57:27;12.77;;;5.55;;
57241;SDS011;43095;53.302;5.786;2022-09-09T10:00:17;15.27;;;6.30;;
57241;SDS011;43095;53.302;5.786;2022-09-09T10:03:27;13.48;;;4.82;;
57241;SDS011;43095;53.302;5.786;2022-09-09T10:06:16;8.57;;;4.00;;
57241;SDS011;43095;53.302;5.786;2022-09-09T10:09:02;6.68;;;3.55;;
57241;SDS011;43095;53.302;5.786;2022-09-09T10:30:34;5.90;;;2.47;;
57241;SDS011;43095;53.302;5.786;2022-09-09T10:33:31;10.95;;;3.35;;
57241;SDS011;43095;53.302;5.786;2022-09-09T10:36:27;13.20;;;3.28;;
57241;SDS011;43095;53.302;5.786;2022-09-09T10:42:14;9.15;;;3.40;;
57241;SDS011;43095;53.302;5.786;2022-09-09T10:45:06;8.18;;;2.42;;
57241;SDS011;43095;53.302;5.786;2022-09-09T10:54:50;5.82;;;2.10;;
57241;SDS011;43095;53.302;5.786;2022-09-09T10:57:48;5.13;;;2.00;;
57241;SDS011;43095;53.302;5.786;2022-09-09T11:00:44;11.25;;;3.03;;
57241;SDS011;43095;53.302;5.786;2022-09-09T11:03:42;9.30;;;2.40;;
57241;SDS011;43095;53.302;5.786;2022-09-09T11:06:35;6.32;;;2.20;;
57241;SDS011;43095;53.302;5.786;2022-09-09T11:09:28;7.88;;;2.40;;
57241;SDS011;43095;53.302;5.786;2022-09-09T11:12:19;8.82;;;2.08;;
57241;SDS011;43095;53.302;5.786;2022-09-09T11:15:17;8.70;;;1.92;;
57241;SDS011;43095;53.302;5.786;2022-09-09T11:18:08;8.48;;;2.13;;
57241;SDS011;43095;53.302;5.786;2022-09-09T11:20:59;8.55;;;2.28;;
57241;SDS011;43095;53.302;5.786;2022-09-09T11:23:52;7.82;;;1.90;;
57241;SDS011;43095;53.302;5.786;2022-09-09T11:26:46;6.07;;;1.92;;
57241;SDS011;43095;53.302;5.786;2022-09-09T11:30:04;7.55;;;1.95;;
57241;SDS011;43095;53.302;5.786;2022-09-09T11:33:24;7.53;;;2.08;;
57241;SDS011;43095;53.302;5.786;2022-09-09T11:42:19;8.10;;;2.50;;
57241;SDS011;43095;53.302;5.786;2022-09-09T11:48:04;6.53;;;1.77;;
57241;SDS011;43095;53.302;5.786;2022-09-09T11:50:58;7.65;;;2.05;;
57241;SDS011;43095;53.302;5.786;2022-09-09T11:53:51;8.82;;;2.40;;
57241;SDS011;43095;53.302;5.786;2022-09-09T11:56:44;5.55;;;1.70;;
57241;SDS011;43095;53.302;5.786;2022-09-09T11:59:31;9.07;;;2.25;;
57241;SDS011;43095;53.302;5.786;2022-09-09T12:02:21;5.55;;;1.42;;
57241;SDS011;43095;53.302;5.786;2022-09-09T12:05:13;6.55;;;1.75;;
57241;SDS011;43095;53.302;5.786;2022-09-09T12:08:01;4.83;;;1.63;;
57241;SDS011;43095;53.302;5.786;2022-09-09T12:10:55;6.35;;;1.70;;
57241;SDS011;43095;53.302;5.786;2022-09-09T12:13:52;10.52;;;1.75;;
57241;SDS011;43095;53.302;5.786;2022-09-09T12:16:39;6.60;;;2.15;;
57241;SDS011;43095;53.302;5.786;2022-09-09T12:19:25;5.65;;;1.50;;
57241;SDS011;43095;53.302;5.786;2022-09-09T12:40:38;7.00;;;1.75;;
57241;SDS011;43095;53.302;5.786;2022-09-09T12:43:25;7.15;;;1.55;;
57241;SDS011;43095;53.302;5.786;2022-09-09T12:46:19;5.65;;;1.63;;
57241;SDS011;43095;53.302;5.786;2022-09-09T12:49:36;5.07;;;2.10;;
57241;SDS011;43095;53.302;5.786;2022-09-09T12:52:29;8.57;;;2.30;;
57241;SDS011;43095;53.302;5.786;2022-09-09T12:55:20;7.57;;;2.13;;
57241;SDS011;43095;53.302;5.786;2022-09-09T12:58:11;7.38;;;2.42;;
57241;SDS011;43095;53.302;5.786;2022-09-09T13:01:00;6.97;;;1.90;;
57241;SDS011;43095;53.302;5.786;2022-09-09T13:03:49;9.13;;;1.92;;
57241;SDS011;43095;53.302;5.786;2022-09-09T13:06:35;6.88;;;1.92;;
57241;SDS011;43095;53.302;5.786;2022-09-09T13:09:21;8.88;;;1.92;;
57241;SDS011;43095;53.302;5.786;2022-09-09T13:12:09;7.22;;;2.00;;
57241;SDS011;43095;53.302;5.786;2022-09-09T13:15:24;9.07;;;2.38;;
57241;SDS011;43095;53.302;5.786;2022-09-09T13:18:12;6.65;;;2.00;;
57241;SDS011;43095;53.302;5.786;2022-09-09T13:20:59;6.95;;;1.92;;
57241;SDS011;43095;53.302;5.786;2022-09-09T13:23:48;9.05;;;1.90;;
57241;SDS011;43095;53.302;5.786;2022-09-09T13:26:35;5.65;;;1.80;;
57241;SDS011;43095;53.302;5.786;2022-09-09T13:29:21;5.13;;;1.63;;
57241;SDS011;43095;53.302;5.786;2022-09-09T13:32:18;6.13;;;1.63;;
57241;SDS011;43095;53.302;5.786;2022-09-09T13:35:04;4.40;;;1.33;;
57241;SDS011;43095;53.302;5.786;2022-09-09T13:38:09;6.53;;;2.20;;
57241;SDS011;43095;53.302;5.786;2022-09-09T13:43:49;6.80;;;1.60;;
57241;SDS011;43095;53.302;5.786;2022-09-09T13:46:39;8.05;;;2.03;;
57241;SDS011;43095;53.302;5.786;2022-09-09T13:49:27;5.90;;;1.70;;
57241;SDS011;43095;53.302;5.786;2022-09-09T13:52:16;2.95;;;1.08;;
57241;SDS011;43095;53.302;5.786;2022-09-09T13:55:03;1.85;;;0.80;;
57241;SDS011;43095;53.302;5.786;2022-09-09T13:57:50;7.53;;;1.05;;
57241;SDS011;43095;53.302;5.786;2022-09-09T14:00:40;2.72;;;0.93;;
57241;SDS011;43095;53.302;5.786;2022-09-09T14:03:26;4.70;;;1.67;;
57241;SDS011;43095;53.302;5.786;2022-09-09T14:06:12;6.65;;;1.92;;
57241;SDS011;43095;53.302;5.786;2022-09-09T14:08:58;6.68;;;1.70;;
57241;SDS011;43095;53.302;5.786;2022-09-09T14:11:44;2.65;;;0.40;;
57241;SDS011;43095;53.302;5.786;2022-09-09T14:14:31;2.88;;;0.60;;
57241;SDS011;43095;53.302;5.786;2022-09-09T14:17:17;1.27;;;0.70;;
57241;SDS011;43095;53.302;5.786;2022-09-09T14:20:03;5.40;;;1.23;;
57241;SDS011;43095;53.302;5.786;2022-09-09T14:22:53;4.53;;;1.90;;
57241;SDS011;43095;53.302;5.786;2022-09-09T14:25:44;4.68;;;2.00;;
57241;SDS011;43095;53.302;5.786;2022-09-09T14:28:32;5.40;;;2.10;;
57241;SDS011;43095;53.302;5.786;2022-09-09T14:31:38;7.70;;;2.17;;
57241;SDS011;43095;53.302;5.786;2022-09-09T14:34:23;4.90;;;2.15;;
57241;SDS011;43095;53.302;5.786;2022-09-09T14:37:08;3.38;;;1.60;;
57241;SDS011;43095;53.302;5.786;2022-09-09T14:39:54;4.88;;;1.30;;
57241;SDS011;43095;53.302;5.786;2022-09-09T14:42:41;4.80;;;1.50;;
57241;SDS011;43095;53.302;5.786;2022-09-09T14:45:26;3.00;;;1.60;;
57241;SDS011;43095;53.302;5.786;2022-09-09T14:48:12;6.20;;;1.45;;
57241;SDS011;43095;53.302;5.786;2022-09-09T14:51:13;2.78;;;1.20;;
57241;SDS011;43095;53.302;5.786;2022-09-09T14:54:04;4.35;;;1.30;;
57241;SDS011;43095;53.302;5.786;2022-09-09T14:56:50;4.72;;;1.88;;
57241;SDS011;43095;53.302;5.786;2022-09-09T14:59:35;6.25;;;1.40;;
57241;SDS011;43095;53.302;5.786;2022-09-09T15:02:21;5.07;;;1.40;;
57241;SDS011;43095;53.302;5.786;2022-09-09T15:05:07;4.40;;;1.60;;
57241;SDS011;43095;53.302;5.786;2022-09-09T15:07:53;4.10;;;1.75;;
57241;SDS011;43095;53.302;5.786;2022-09-09T15:10:39;4.05;;;1.67;;
57241;SDS011;43095;53.302;5.786;2022-09-09T15:13:25;3.70;;;1.33;;
57241;SDS011;43095;53.302;5.786;2022-09-09T15:16:11;4.95;;;1.38;;
57241;SDS011;43095;53.302;5.786;2022-09-09T15:18:59;2.88;;;1.00;;
57241;SDS011;43095;53.302;5.786;2022-09-09T15:21:46;3.70;;;1.40;;
57241;SDS011;43095;53.302;5.786;2022-09-09T15:24:32;2.20;;;0.98;;
57241;SDS011;43095;53.302;5.786;2022-09-09T15:27:18;6.03;;;1.20;;
57241;SDS011;43095;53.302;5.786;2022-09-09T15:30:04;3.17;;;1.55;;
57241;SDS011;43095;53.302;5.786;2022-09-09T15:32:50;4.03;;;1.20;;
57241;SDS011;43095;53.302;5.786;2022-09-09T15:35:37;4.60;;;1.10;;
57241;SDS011;43095;53.302;5.786;2022-09-09T15:38:23;6.30;;;1.70;;
57241;SDS011;43095;53.302;5.786;2022-09-09T15:41:10;5.20;;;1.63;;
57241;SDS011;43095;53.302;5.786;2022-09-09T15:43:57;7.35;;;1.90;;
57241;SDS011;43095;53.302;5.786;2022-09-09T15:46:44;4.60;;;1.67;;
57241;SDS011;43095;53.302;5.786;2022-09-09T15:49:40;2.28;;;0.90;;
57241;SDS011;43095;53.302;5.786;2022-09-09T15:52:26;3.05;;;1.10;;
57241;SDS011;43095;53.302;5.786;2022-09-09T15:55:11;4.40;;;1.25;;
57241;SDS011;43095;53.302;5.786;2022-09-09T15:57:57;2.97;;;1.40;;
57241;SDS011;43095;53.302;5.786;2022-09-09T16:00:43;6.53;;;2.83;;
57241;SDS011;43095;53.302;5.786;2022-09-09T16:03:33;6.30;;;3.53;;
57241;SDS011;43095;53.302;5.786;2022-09-09T16:06:27;7.40;;;3.80;;
57241;SDS011;43095;53.302;5.786;2022-09-09T16:09:14;8.98;;;4.07;;
57241;SDS011;43095;53.302;5.786;2022-09-09T16:11:59;9.68;;;3.75;;
57241;SDS011;43095;53.302;5.786;2022-09-09T16:14:46;5.40;;;3.25;;
57241;SDS011;43095;53.302;5.786;2022-09-09T16:17:32;6.18;;;3.50;;
57241;SDS011;43095;53.302;5.786;2022-09-09T16:20:22;6.43;;;3.75;;
57241;SDS011;43095;53.302;5.786;2022-09-09T16:23:08;5.53;;;3.75;;
57241;SDS011;43095;53.302;5.786;2022-09-09T16:25:54;6.72;;;4.15;;
57241;SDS011;43095;53.302;5.786;2022-09-09T16:28:40;4.47;;;3.60;;
57241;SDS011;43095;53.302;5.786;2022-09-09T16:31:27;8.35;;;3.58;;
57241;SDS011;43095;53.302;5.786;2022-09-09T16:34:14;6.22;;;3.50;;
57241;SDS011;43095;53.302;5.786;2022-09-09T16:37:01;5.88;;;3.60;;
57241;SDS011;43095;53.302;5.786;2022-09-09T16:39:47;8.38;;;4.88;;
57241;SDS011;43095;53.302;5.786;2022-09-09T16:42:32;5.18;;;3.67;;
57241;SDS011;43095;53.302;5.786;2022-09-09T16:45:23;5.45;;;3.05;;
57241;SDS011;43095;53.302;5.786;2022-09-09T16:48:09;5.18;;;2.85;;
57241;SDS011;43095;53.302;5.786;2022-09-09T16:51:00;5.22;;;3.20;;
57241;SDS011;43095;53.302;5.786;2022-09-09T16:53:50;4.25;;;2.83;;
57241;SDS011;43095;53.302;5.786;2022-09-09T16:56:38;5.78;;;2.80;;
57241;SDS011;43095;53.302;5.786;2022-09-09T16:59:27;4.15;;;3.00;;
57241;SDS011;43095;53.302;5.786;2022-09-09T17:02:13;4.22;;;2.97;;
57241;SDS011;43095;53.302;5.786;2022-09-09T17:04:58;7.57;;;4.30;;
57241;SDS011;43095;53.302;5.786;2022-09-09T17:07:44;6.68;;;4.20;;
57241;SDS011;43095;53.302;5.786;2022-09-09T17:10:29;8.10;;;4.40;;
57241;SDS011;43095;53.302;5.786;2022-09-09T17:13:15;5.78;;;3.10;;
57241;SDS011;43095;53.302;5.786;2022-09-09T17:16:04;6.07;;;3.53;;
57241;SDS011;43095;53.302;5.786;2022-09-09T17:18:50;4.90;;;3.53;;
57241;SDS011;43095;53.302;5.786;2022-09-09T17:21:36;6.18;;;3.45;;
57241;SDS011;43095;53.302;5.786;2022-09-09T17:24:43;9.60;;;4.47;;
57241;SDS011;43095;53.302;5.786;2022-09-09T17:27:29;6.07;;;2.90;;
57241;SDS011;43095;53.302;5.786;2022-09-09T17:30:18;4.35;;;3.03;;
57241;SDS011;43095;53.302;5.786;2022-09-09T17:33:04;8.05;;;4.22;;
57241;SDS011;43095;53.302;5.786;2022-09-09T17:35:51;9.02;;;4.07;;
57241;SDS011;43095;53.302;5.786;2022-09-09T17:38:37;1.75;;;0.80;;
57241;SDS011;43095;53.302;5.786;2022-09-09T17:41:44;3.40;;;1.00;;
57241;SDS011;43095;53.302;5.786;2022-09-09T17:44:30;2.80;;;0.80;;
57241;SDS011;43095;53.302;5.786;2022-09-09T17:47:17;1.65;;;0.60;;
57241;SDS011;43095;53.302;5.786;2022-09-09T17:50:02;1.70;;;0.65;;
57241;SDS011;43095;53.302;5.786;2022-09-09T17:52:48;11.55;;;1.73;;
57241;SDS011;43095;53.302;5.786;2022-09-09T17:55:34;2.58;;;1.20;;
57241;SDS011;43095;53.302;5.786;2022-09-09T17:58:19;3.05;;;1.70;;
57241;SDS011;43095;53.302;5.786;2022-09-09T18:01:17;1.48;;;0.98;;
57241;SDS011;43095;53.302;5.786;2022-09-09T18:04:05;2.53;;;1.50;;
57241;SDS011;43095;53.302;5.786;2022-09-09T18:06:52;2.63;;;1.20;;
57241;SDS011;43095;53.302;5.786;2022-09-09T18:09:38;3.92;;;1.50;;
57241;SDS011;43095;53.302;5.786;2022-09-09T18:12:24;3.10;;;2.05;;
57241;SDS011;43095;53.302;5.786;2022-09-09T18:15:11;3.13;;;1.55;;
57241;SDS011;43095;53.302;5.786;2022-09-09T18:20:57;3.40;;;2.42;;
57241;SDS011;43095;53.302;5.786;2022-09-09T18:23:48;5.13;;;2.45;;
57241;SDS011;43095;53.302;5.786;2022-09-09T18:26:36;4.18;;;2.70;;
57241;SDS011;43095;53.302;5.786;2022-09-09T18:29:23;3.85;;;3.22;;
57241;SDS011;43095;53.302;5.786;2022-09-09T18:32:10;5.43;;;3.50;;
57241;SDS011;43095;53.302;5.786;2022-09-09T18:34:56;5.13;;;3.72;;
57241;SDS011;43095;53.302;5.786;2022-09-09T18:37:45;5.28;;;3.58;;
57241;SDS011;43095;53.302;5.786;2022-09-09T18:40:31;6.63;;;4.28;;
57241;SDS011;43095;53.302;5.786;2022-09-09T18:43:17;8.65;;;5.30;;
57241;SDS011;43095;53.302;5.786;2022-09-09T18:46:03;5.88;;;4.60;;
57241;SDS011;43095;53.302;5.786;2022-09-09T18:48:49;9.52;;;5.68;;
57241;SDS011;43095;53.302;5.786;2022-09-09T18:51:36;6.32;;;5.60;;
57241;SDS011;43095;53.302;5.786;2022-09-09T18:54:25;9.63;;;6.20;;
57241;SDS011;43095;53.302;5.786;2022-09-09T18:57:14;7.68;;;5.05;;
57241;SDS011;43095;53.302;5.786;2022-09-09T18:59:59;6.63;;;4.95;;
57241;SDS011;43095;53.302;5.786;2022-09-09T19:02:47;8.15;;;5.07;;
57241;SDS011;43095;53.302;5.786;2022-09-09T19:05:35;6.30;;;4.80;;